Stations météo

réclame
Mon MeteoGroup
Monte Scuro, Italie (16344): Température de l'air & dewpoint: 15.02.2018 12:00:00 - 21.02.2018 12:00:00 (CET)Monte Scuro, Italie (16344): Vitesse du vent: 15.02.2018 12:00:00 - 21.02.2018 12:00:00 (CET)Monte Scuro, Italie (16344): Direction du vent: 15.02.2018 12:00:00 - 21.02.2018 12:00:00 (CET)Monte Scuro, Italie (16344): visibility: 15.02.2018 12:00:00 - 21.02.2018 12:00:00 (CET)Monte Scuro, Italie (16344): Ensoleillement: 15.02.2018 12:00:00 - 21.02.2018 12:00:00 (CET)
Date & Time tt [°C] td [°C] ff [km/h] ff [knt] dd vv [km] sd [min]
21.02.2018 12:00:00 - - - - - - -
21.02.2018 11:00:00 1,0 1,0 22 12 E - 0
21.02.2018 10:00:00 1,0 -0,5 18 10 SSE 10 0
21.02.2018 09:00:00 1,0 0,3 24 13 SSE 10 0
21.02.2018 08:00:00 0,4 -1,3 11 6 SSE 10 0
21.02.2018 07:00:00 0,0 -0,7 18 10 SSE - 0
21.02.2018 06:00:00 0,0 -0,7 9 5 SSW - -
21.02.2018 05:00:00 0,0 -1,7 9 5 SW 10 -
21.02.2018 04:00:00 0,0 -1,7 11 6 SSW 10 -
21.02.2018 03:00:00 0,0 -1,4 9 5 SW 10 -
21.02.2018 02:00:00 0,0 -30,0 9 5 SSW 10 -
21.02.2018 01:00:00 0,0 -0,6 8 4 SSW - -
21.02.2018 00:00:00 0,0 -0,4 9 5 W - -
20.02.2018 23:00:00 0,0 -0,4 9 5 W - -
20.02.2018 22:00:00 0,0 -0,4 13 7 W - -
20.02.2018 21:00:00 0,0 -0,4 15 8 W - -
20.02.2018 20:00:00 0,2 -0,2 9 5 W - -
20.02.2018 19:00:00 1,0 0,6 9 5 SW - -
20.02.2018 18:00:00 1,0 0,6 11 6 SW - 0
20.02.2018 17:00:00 1,2 0,9 9 5 SW - 0
20.02.2018 16:00:00 2,0 1,6 9 5 SW - 0
20.02.2018 15:00:00 2,0 1,6 8 4 WSW - 0
20.02.2018 14:00:00 2,0 1,7 13 7 W - 0
20.02.2018 13:00:00 2,0 1,3 15 8 W - 0
20.02.2018 12:00:00 2,0 1,3 18 10 W - 0
20.02.2018 11:00:00 2,0 1,6 18 10 W - 0
20.02.2018 10:00:00 2,0 1,6 16 9 W - 0
20.02.2018 09:00:00 2,6 2,0 11 6 WSW - 0
20.02.2018 08:00:00 2,4 1,8 8 4 SW - 0
20.02.2018 07:00:00 1,4 0,1 11 6 SW - -
20.02.2018 06:00:00 1,6 1,6 18 10 W - -
20.02.2018 05:00:00 1,6 1,6 15 8 SSW - -
20.02.2018 04:00:00 1,4 1,4 16 9 SSW - -
20.02.2018 03:00:00 1,6 1,6 15 8 SW - -
20.02.2018 02:00:00 2,2 1,6 13 7 W 10 -
20.02.2018 01:00:00 2,2 1,6 16 9 WSW 10 -
20.02.2018 00:00:00 2,8 2,4 16 9 W 10 -
19.02.2018 23:00:00 2,8 2,4 15 8 WSW 10 -
19.02.2018 22:00:00 2,8 2,5 5 3 SW - -
19.02.2018 21:00:00 3,2 3,2 11 6 WSW - -
19.02.2018 20:00:00 2,8 2,8 8 4 WSW - -
19.02.2018 19:00:00 3,0 3,0 8 4 SW - -
19.02.2018 18:00:00 3,2 3,2 0 0 N - 0
19.02.2018 17:00:00 3,4 3,4 13 7 SW - 0
19.02.2018 16:00:00 4,0 4,0 11 6 WSW - 0
19.02.2018 15:00:00 4,8 4,8 9 5 WSW - 0
19.02.2018 14:00:00 5,8 4,1 13 7 WSW 10 6
19.02.2018 13:00:00 5,4 2,9 11 6 WSW 10 12
19.02.2018 12:00:00 5,4 2,7 9 5 SW 10 18
19.02.2018 11:00:00 5,2 2,2 13 7 SW 10 18
19.02.2018 10:00:00 4,0 1,4 4 2 SSW 8 36
19.02.2018 09:00:00 3,0 0,9 8 4 SW 10 0
19.02.2018 08:00:00 2,0 0,7 8 4 SSW 8 0
19.02.2018 07:00:00 1,6 1,0 8 4 SW 10 -
19.02.2018 06:00:00 1,0 -4,3 11 6 SSW 4,0 -
19.02.2018 05:00:00 1,0 0,4 11 6 SSW 4,0 -
19.02.2018 04:00:00 1,0 0,4 11 6 SW 4,0 -
19.02.2018 03:00:00 1,0 0,4 11 6 SW 4,0 -
19.02.2018 02:00:00 1,8 1,4 11 6 NNE 5 -
19.02.2018 01:00:00 1,8 1,0 11 6 SSW 6 -
19.02.2018 00:00:00 2,0 -5,7 11 6 SSW 5 -
18.02.2018 23:00:00 2,4 -8,5 11 6 E 7 -
18.02.2018 22:00:00 2,2 -10,0 11 6 SSW 5 -
18.02.2018 21:00:00 2,4 -14,8 11 6 SSW 5 -
18.02.2018 20:00:00 2,2 -12,6 11 6 SSW 5 -
18.02.2018 19:00:00 2,0 -9,6 11 6 SSW 6 -
18.02.2018 18:00:00 2,0 -8,4 15 8 SW 5 0
18.02.2018 17:00:00 2,0 0,3 15 8 SW 5 0
18.02.2018 16:00:00 3,0 0,9 15 8 SW 5 6
18.02.2018 15:00:00 3,0 0,2 15 8 SW 6 18
18.02.2018 14:00:00 3,2 -0,2 18 10 SW 5 18
18.02.2018 13:00:00 3,0 0,0 24 13 SW 6 0
18.02.2018 12:00:00 2,8 -0,2 24 13 SW 6 0
18.02.2018 11:00:00 3,0 0,7 24 13 SW 6 0
18.02.2018 10:00:00 1,6 -2,0 28 15 SW 20 0
18.02.2018 09:00:00 0,8 -2,3 28 15 SW 20 0
18.02.2018 08:00:00 0,4 -5,0 28 15 SW 20 0
18.02.2018 07:00:00 0,0 -13,3 28 15 SW 20 -
18.02.2018 06:00:00 0,0 -14,7 28 15 SW 10 -
18.02.2018 05:00:00 2,0 -13,8 24 13 SW 10 -
18.02.2018 04:00:00 2,0 -13,8 28 15 SW 10 -
18.02.2018 03:00:00 2,0 -15,0 26 14 SW 10 -
18.02.2018 02:00:00 2,0 -15,0 24 13 SW 10 -
18.02.2018 01:00:00 2,0 -10,2 29 16 SW 10 -
18.02.2018 00:00:00 3,8 -21,3 22 12 SW 10 -
17.02.2018 23:00:00 3,8 -21,3 22 12 SW 10 -
17.02.2018 22:00:00 3,6 -24,2 22 12 SW 10 -
17.02.2018 21:00:00 4,8 -18,9 22 12 W 10 -
17.02.2018 20:00:00 3,8 -17,1 18 10 W 10 -
17.02.2018 19:00:00 2,4 -5,2 22 12 W 10 -
17.02.2018 18:00:00 3,0 -3,3 18 10 W 15 0
17.02.2018 17:00:00 3,0 -4,0 22 12 W 20 30
17.02.2018 16:00:00 4,0 -3,7 18 10 W 20 60
17.02.2018 15:00:00 5,0 -5,6 18 10 W 20 60
17.02.2018 14:00:00 5,6 -7,3 11 6 W 25 60
17.02.2018 13:00:00 6,6 -7,8 5 3 W 25 60
17.02.2018 12:00:00 6,6 -8,9 0 0 N 25 60
17.02.2018 11:00:00 6,4 -8,3 0 0 N 25 60
17.02.2018 10:00:00 4,0 -17,0 0 0 N 20 60
17.02.2018 09:00:00 4,0 -14,8 0 0 N 20 60
17.02.2018 08:00:00 2,0 -18,6 0 0 N 20 60
17.02.2018 07:00:00 2,0 -18,6 0 0 N 20 -
17.02.2018 06:00:00 2,0 -20,5 0 0 N 15 -
17.02.2018 05:00:00 0,0 -6,8 0 0 N 10 -
17.02.2018 04:00:00 0,0 -6,8 0 0 N 10 -
17.02.2018 03:00:00 0,0 -6,8 0 0 N 10 -
17.02.2018 02:00:00 0,0 -6,8 0 0 N 10 -
17.02.2018 01:00:00 0,0 -6,8 0 0 N 10 -
17.02.2018 00:00:00 0,0 -6,8 0 0 N 10 -
16.02.2018 23:00:00 0,0 -6,8 0 0 N 10 -
16.02.2018 22:00:00 0,0 -6,8 0 0 N 10 -
16.02.2018 21:00:00 1,0 -4,8 0 0 N 20 -
16.02.2018 20:00:00 1,0 -9,6 0 0 N 15 -
16.02.2018 19:00:00 1,0 -9,6 0 0 N 15 -
16.02.2018 18:00:00 1,0 -5,9 4 2 N 20 60
16.02.2018 17:00:00 2,0 -3,9 5 3 NNE 20 60
16.02.2018 16:00:00 2,0 -3,9 8 4 N 20 60
16.02.2018 15:00:00 0,0 -10,5 8 4 NNE 30 60
16.02.2018 14:00:00 0,0 -11,1 5 3 NNE 30 60
16.02.2018 13:00:00 -1,0 -12,9 5 3 NNE 30 60
16.02.2018 12:00:00 -1,0 -12,9 5 3 ENE 30 60
16.02.2018 11:00:00 -1,0 -12,9 16 9 NNE 30 60
16.02.2018 10:00:00 -2,0 -11,5 16 9 NNE 25 60
16.02.2018 09:00:00 -2,4 -7,7 21 11 NNE 25 60
16.02.2018 08:00:00 -3,0 -7,3 22 12 NNE 25 48
16.02.2018 07:00:00 -3,6 -6,5 29 16 NNE 20 -
16.02.2018 06:00:00 -3,8 -5,8 24 13 NE 10 -
16.02.2018 05:00:00 -3,8 -5,6 18 10 NE 10 -
16.02.2018 04:00:00 -4,0 -5,8 24 13 NE 10 -
16.02.2018 03:00:00 -4,0 -5,8 21 11 NNE 10 -
16.02.2018 02:00:00 -4,4 -6,7 31 17 N 10 -
16.02.2018 01:00:00 -4,4 -6,2 34 18 NE 10 -
16.02.2018 00:00:00 -4,4 -6,4 31 17 NNE 10 -
15.02.2018 23:00:00 -4,4 -6,1 31 17 NNE 10 -
15.02.2018 22:00:00 -4,2 -5,3 29 16 N 10 -
15.02.2018 21:00:00 -4,2 -5,2 29 16 N 10 -
15.02.2018 20:00:00 -3,6 -3,6 21 11 N - -
15.02.2018 19:00:00 -3,6 -3,6 24 13 NNE - -
15.02.2018 18:00:00 -3,4 -4,1 26 14 NE - 0
15.02.2018 17:00:00 -3,4 -4,0 21 11 NNE - 0
15.02.2018 16:00:00 -3,4 -4,0 22 12 NNE - 0
15.02.2018 15:00:00 -3,4 -3,8 24 13 NNE - 0
15.02.2018 14:00:00 -3,4 -3,4 29 16 NNE - 0
15.02.2018 13:00:00 -3,6 -3,6 35 19 NNE - 0
15.02.2018 12:00:00 -3,6 -3,6 35 19 NNE - 0

tt = Température de l'air
td = dewpoint
ff = Vitesse du vent
dd = Direction du vent
vv = visibility
sd = Ensoleillement

stations d'obs. à proximité